createdAt,value
2022-07-31T00:00:33.617Z,100862.00
2022-07-31T00:05:38.744Z,100858.00
2022-07-31T00:10:35.723Z,100858.00
2022-07-31T00:15:35.710Z,100858.00
2022-07-31T00:20:35.694Z,100856.00
2022-07-31T00:25:35.682Z,100856.00
2022-07-31T00:30:35.710Z,100848.00
2022-07-31T00:35:35.651Z,100846.00
2022-07-31T00:40:35.683Z,100846.00
2022-07-31T00:45:35.727Z,100840.00
2022-07-31T00:50:37.707Z,100838.00
2022-07-31T00:55:51.096Z,100832.00
2022-07-31T01:00:40.996Z,100826.00
2022-07-31T01:05:41.259Z,100826.00
2022-07-31T01:10:42.188Z,100826.00
2022-07-31T01:15:41.704Z,100826.00
2022-07-31T01:20:42.504Z,100828.00
2022-07-31T01:25:56.840Z,100832.00
2022-07-31T01:31:17.110Z,100832.00
2022-07-31T01:35:58.711Z,100832.00
2022-07-31T01:40:58.796Z,100826.00
2022-07-31T01:45:59.960Z,100826.00
2022-07-31T01:50:59.932Z,100817.00
2022-07-31T01:56:03.859Z,100819.00
2022-07-31T02:01:02.055Z,100815.00
2022-07-31T02:06:03.788Z,100811.00
2022-07-31T02:11:05.157Z,100813.00
2022-07-31T02:16:06.216Z,100811.00
2022-07-31T02:21:05.843Z,100811.00
2022-07-31T02:26:07.512Z,100813.00
2022-07-31T02:31:08.007Z,100809.00
2022-07-31T02:36:07.742Z,100805.00
2022-07-31T02:41:08.269Z,100803.00
2022-07-31T02:46:07.890Z,100792.00
2022-07-31T02:51:08.255Z,100786.00
2022-07-31T02:56:10.338Z,100782.00
2022-07-31T03:01:10.985Z,100780.00
2022-07-31T03:06:11.718Z,100775.00
2022-07-31T03:11:11.776Z,100775.00
2022-07-31T03:16:11.743Z,100784.00
2022-07-31T03:21:11.839Z,100788.00
2022-07-31T03:26:12.255Z,100790.00
2022-07-31T03:31:11.759Z,100782.00
2022-07-31T03:36:12.365Z,100786.00
2022-07-31T03:41:12.822Z,100788.00
2022-07-31T03:46:12.978Z,100792.00
2022-07-31T03:51:13.080Z,100792.00
2022-07-31T03:56:12.972Z,100790.00
2022-07-31T04:01:12.964Z,100790.00
2022-07-31T04:06:12.785Z,100790.00
2022-07-31T04:11:12.967Z,100790.00
2022-07-31T04:16:12.810Z,100801.00
2022-07-31T04:21:12.783Z,100801.00
2022-07-31T04:26:19.917Z,100803.00
2022-07-31T04:31:18.719Z,100807.00
2022-07-31T04:36:29.538Z,100803.00
2022-07-31T04:41:21.014Z,100803.00
2022-07-31T04:46:20.841Z,100809.00
2022-07-31T04:51:21.006Z,100809.00
2022-07-31T04:56:37.301Z,100809.00
2022-07-31T05:01:37.008Z,100811.00
2022-07-31T05:06:37.884Z,100811.00
2022-07-31T05:11:38.209Z,100811.00
2022-07-31T05:16:38.150Z,100813.00
2022-07-31T05:21:52.840Z,100813.00
2022-07-31T05:26:41.868Z,100817.00
2022-07-31T05:32:00.549Z,100815.00
2022-07-31T05:36:44.939Z,100815.00
2022-07-31T05:41:52.804Z,100815.00
2022-07-31T05:51:54.631Z,100819.00
2022-07-31T05:56:56.828Z,100820.00
2022-07-31T06:01:57.489Z,100820.00
2022-07-31T06:06:59.782Z,100817.00
2022-07-31T06:12:00.643Z,100813.00
2022-07-31T06:17:00.896Z,100813.00
2022-07-31T06:22:02.725Z,100817.00
2022-07-31T06:27:04.538Z,100813.00
2022-07-31T06:32:05.951Z,100811.00
2022-07-31T06:37:06.072Z,100809.00
2022-07-31T06:42:07.902Z,100792.00
2022-07-31T06:47:26.640Z,100784.00
2022-07-31T06:52:27.360Z,100790.00
2022-07-31T06:57:26.915Z,100792.00
2022-07-31T07:02:27.939Z,100801.00
2022-07-31T07:07:31.948Z,100801.00
2022-07-31T07:12:31.632Z,100801.00
2022-07-31T07:17:32.885Z,100790.00
2022-07-31T07:22:34.618Z,100788.00
2022-07-31T07:27:36.317Z,100784.00
2022-07-31T07:32:35.963Z,100784.00
2022-07-31T07:37:38.948Z,100782.00
2022-07-31T07:42:38.483Z,100782.00
2022-07-31T07:48:05.314Z,100777.00
2022-07-31T07:52:51.110Z,100777.00
2022-07-31T07:57:58.531Z,100769.00
2022-07-31T08:03:46.823Z,100775.00
2022-07-31T08:08:17.143Z,100771.00
2022-07-31T08:13:35.815Z,100765.00
2022-07-31T08:18:38.039Z,100761.00
2022-07-31T08:23:38.959Z,100763.00
2022-07-31T08:28:39.314Z,100761.00
2022-07-31T08:33:39.623Z,100751.00
2022-07-31T08:38:59.037Z,100751.00
2022-07-31T08:44:00.237Z,100747.00
2022-07-31T08:49:01.178Z,100745.00
2022-07-31T08:54:01.116Z,100743.00
2022-07-31T08:59:01.456Z,100745.00
2022-07-31T09:04:01.288Z,100743.00
2022-07-31T09:09:01.111Z,100743.00
2022-07-31T09:14:03.485Z,100739.00
2022-07-31T09:19:03.448Z,100741.00
2022-07-31T09:24:05.122Z,100739.00
2022-07-31T09:29:07.489Z,100737.00
2022-07-31T09:34:14.899Z,100737.00
2022-07-31T09:39:35.937Z,100733.00
2022-07-31T09:44:36.192Z,100728.00
2022-07-31T09:49:36.846Z,100720.00
2022-07-31T09:54:39.002Z,100716.00
2022-07-31T09:59:39.295Z,100716.00
2022-07-31T10:04:41.103Z,100714.00
2022-07-31T10:09:43.074Z,100716.00
2022-07-31T10:14:44.055Z,100720.00
2022-07-31T10:19:58.042Z,100722.00
2022-07-31T10:25:00.253Z,100716.00
2022-07-31T10:30:00.174Z,100710.00
2022-07-31T10:35:01.983Z,100704.00
2022-07-31T10:40:04.100Z,100696.00
2022-07-31T10:45:06.022Z,100694.00
2022-07-31T10:50:20.184Z,100688.00
2022-07-31T10:55:40.434Z,100686.00
2022-07-31T11:00:51.149Z,100683.00
2022-07-31T11:06:01.453Z,100683.00
2022-07-31T11:10:57.107Z,100677.00
2022-07-31T11:16:16.888Z,100677.00
2022-07-31T11:21:37.611Z,100677.00
2022-07-31T11:26:19.190Z,100677.00
2022-07-31T11:31:21.692Z,100679.00
2022-07-31T11:36:21.176Z,100679.00
2022-07-31T11:41:22.274Z,100677.00
2022-07-31T11:46:23.236Z,100675.00
2022-07-31T11:51:23.268Z,100671.00
2022-07-31T11:56:23.789Z,100671.00
2022-07-31T12:01:23.280Z,100675.00
2022-07-31T12:06:23.295Z,100669.00
2022-07-31T12:11:25.302Z,100663.00
2022-07-31T12:16:28.368Z,100659.00
2022-07-31T12:21:28.394Z,100649.00
2022-07-31T12:26:28.320Z,100649.00
2022-07-31T12:31:28.285Z,100647.00
2022-07-31T12:36:28.299Z,100645.00
2022-07-31T12:41:28.223Z,100641.00
2022-07-31T12:46:28.273Z,100636.00
2022-07-31T12:51:45.669Z,100630.00
2022-07-31T12:56:32.328Z,100622.00
2022-07-31T13:01:32.356Z,100624.00
2022-07-31T13:06:32.338Z,100616.00
2022-07-31T13:11:46.278Z,100610.00
2022-07-31T13:16:34.270Z,100604.00
2022-07-31T13:21:48.419Z,100598.00
2022-07-31T13:26:37.708Z,100592.00
2022-07-31T13:31:37.346Z,100585.00
2022-07-31T13:36:39.509Z,100585.00
2022-07-31T13:41:39.789Z,100587.00
2022-07-31T13:46:40.320Z,100585.00
2022-07-31T13:51:40.314Z,100583.00
2022-07-31T13:56:43.335Z,100583.00
2022-07-31T14:02:03.580Z,100581.00
2022-07-31T14:06:45.746Z,100581.00
2022-07-31T14:11:46.357Z,100581.00
2022-07-31T14:16:48.376Z,100581.00
2022-07-31T14:21:56.546Z,100573.00
2022-07-31T14:26:50.372Z,100567.00
2022-07-31T14:31:50.475Z,100565.00
2022-07-31T14:36:50.354Z,100559.00
2022-07-31T14:41:50.569Z,100555.00
2022-07-31T14:46:50.705Z,100551.00
2022-07-31T14:51:50.456Z,100547.00
2022-07-31T14:57:01.150Z,100535.00
2022-07-31T15:01:52.569Z,100535.00
2022-07-31T15:07:03.104Z,100533.00
2022-07-31T15:11:59.935Z,100531.00
2022-07-31T15:16:56.470Z,100543.00
2022-07-31T15:22:10.407Z,100533.00
2022-07-31T15:26:58.483Z,100529.00
2022-07-31T15:31:58.473Z,100527.00
2022-07-31T15:36:58.408Z,100521.00
2022-07-31T15:41:58.400Z,100517.00
2022-07-31T15:46:58.423Z,100513.00
2022-07-31T15:51:58.472Z,100509.00
2022-07-31T15:56:58.490Z,100509.00
2022-07-31T16:01:58.468Z,100502.00
2022-07-31T16:06:59.047Z,100500.00
2022-07-31T16:12:03.892Z,100496.00
2022-07-31T16:17:01.534Z,100494.00
2022-07-31T16:22:01.417Z,100492.00
2022-07-31T16:27:01.467Z,100490.00
2022-07-31T16:32:01.548Z,100488.00
2022-07-31T16:37:01.861Z,100486.00
2022-07-31T16:42:02.492Z,100484.00
2022-07-31T16:47:02.561Z,100484.00
2022-07-31T16:52:02.474Z,100478.00
2022-07-31T16:57:02.816Z,100474.00
2022-07-31T17:02:02.709Z,100480.00
2022-07-31T17:07:03.041Z,100478.00
2022-07-31T17:12:04.259Z,100474.00
2022-07-31T17:17:04.760Z,100474.00
2022-07-31T17:22:04.550Z,100472.00
2022-07-31T17:27:05.009Z,100472.00
2022-07-31T17:32:05.609Z,100472.00
2022-07-31T17:37:06.667Z,100474.00
2022-07-31T17:42:09.702Z,100474.00
2022-07-31T17:47:10.886Z,100472.00
2022-07-31T17:52:11.837Z,100474.00
2022-07-31T17:57:11.647Z,100474.00
2022-07-31T18:02:12.714Z,100484.00
2022-07-31T18:07:17.378Z,100527.00
2022-07-31T18:12:17.737Z,100551.00
2022-07-31T18:17:18.903Z,100543.00
2022-07-31T18:22:18.527Z,100529.00
2022-07-31T18:27:18.609Z,100527.00
2022-07-31T18:32:44.034Z,100531.00
2022-07-31T18:37:43.567Z,100531.00
2022-07-31T18:42:43.654Z,100531.00
2022-07-31T18:47:43.576Z,100535.00
2022-07-31T18:52:43.879Z,100535.00
2022-07-31T18:57:43.964Z,100547.00
2022-07-31T19:02:43.722Z,100555.00
2022-07-31T19:07:43.572Z,100567.00
2022-07-31T19:12:45.847Z,100577.00
2022-07-31T19:17:45.705Z,100589.00
2022-07-31T19:22:45.603Z,100598.00
2022-07-31T19:27:50.485Z,100606.00
2022-07-31T19:32:47.664Z,100608.00
2022-07-31T19:37:47.779Z,100612.00
2022-07-31T19:42:51.713Z,100616.00
2022-07-31T19:47:51.782Z,100618.00
2022-07-31T19:52:51.689Z,100620.00
2022-07-31T19:57:51.649Z,100624.00
2022-07-31T20:02:52.202Z,100628.00
2022-07-31T20:07:51.698Z,100632.00
2022-07-31T20:12:51.706Z,100634.00
2022-07-31T20:17:52.608Z,100641.00
2022-07-31T20:22:52.721Z,100645.00
2022-07-31T20:27:52.797Z,100651.00
2022-07-31T20:32:52.841Z,100655.00
2022-07-31T20:37:55.283Z,100659.00
2022-07-31T20:42:58.711Z,100663.00
2022-07-31T20:47:58.794Z,100663.00
2022-07-31T20:52:58.771Z,100665.00
2022-07-31T20:57:58.675Z,100667.00
2022-07-31T21:02:59.925Z,100669.00
2022-07-31T21:07:59.691Z,100673.00
2022-07-31T21:12:59.832Z,100675.00
2022-07-31T21:17:59.656Z,100675.00
2022-07-31T21:23:01.429Z,100681.00
2022-07-31T21:28:01.771Z,100681.00
2022-07-31T21:33:01.699Z,100683.00
2022-07-31T21:38:01.742Z,100684.00
2022-07-31T21:43:02.861Z,100686.00
2022-07-31T21:48:03.446Z,100684.00
2022-07-31T21:53:03.887Z,100686.00
2022-07-31T21:58:03.766Z,100690.00
2022-07-31T22:03:03.796Z,100692.00
2022-07-31T22:08:03.813Z,100696.00
2022-07-31T22:13:04.831Z,100700.00
2022-07-31T22:18:04.743Z,100700.00
2022-07-31T22:23:04.724Z,100704.00
2022-07-31T22:28:04.768Z,100702.00
2022-07-31T22:33:05.080Z,100704.00
2022-07-31T22:38:05.758Z,100704.00
2022-07-31T22:44:09.898Z,100702.00
2022-07-31T22:48:07.786Z,100704.00
2022-07-31T22:53:07.823Z,100704.00
2022-07-31T22:58:10.308Z,100706.00
2022-07-31T23:03:09.825Z,100710.00
2022-07-31T23:08:09.914Z,100712.00
2022-07-31T23:13:09.871Z,100714.00
2022-07-31T23:18:09.842Z,100720.00
2022-07-31T23:23:09.770Z,100714.00
2022-07-31T23:28:09.851Z,100720.00
2022-07-31T23:33:11.720Z,100724.00
2022-07-31T23:38:11.831Z,100724.00
2022-07-31T23:43:11.862Z,100720.00
2022-07-31T23:48:13.267Z,100718.00
2022-07-31T23:53:13.953Z,100716.00
2022-07-31T23:58:13.918Z,100716.00
